METAR Data
IDs: Format: Raw Decoded Include TAF

Data at: 0244 UTC 29 Nov 2020

METAR for:KRDK (Red Oak Muni, IA, US)
Text:KRDK 290235Z AUTO 20006KT 10SM CLR 03/M00 A3002 RMK AO2
Temperature: 3.0°C ( 37°F)
Dewpoint: 0.0°C ( 32°F) [RH = 81%]
Pressure (altimeter):30.02 inches Hg (1016.7 mb)
Winds:from the SSW (200 degrees) at 7 MPH (6 knots; 3.1 m/s)
Visibility:10 or more sm (16+ km)
Ceiling:at least 12,000 feet AGL
Clouds:sky clear below 12,000 feet AGL
QC Flag:automated observation with no human augmentation